createdAt,value
2017-05-15T00:00:10.830Z,99.99
2017-05-15T00:01:21.840Z,99.99
2017-05-15T00:02:33.045Z,99.99
2017-05-15T00:03:44.258Z,99.99
2017-05-15T00:04:55.532Z,99.99
2017-05-15T00:06:06.944Z,99.99
2017-05-15T00:07:17.946Z,99.99
2017-05-15T00:08:28.959Z,99.99
2017-05-15T00:09:40.167Z,99.99
2017-05-15T00:10:51.181Z,99.99
2017-05-15T00:12:02.386Z,99.99
2017-05-15T00:13:13.430Z,99.99
2017-05-15T00:14:24.683Z,99.99
2017-05-15T00:15:35.689Z,99.99
2017-05-15T00:16:46.700Z,99.99
2017-05-15T00:17:57.701Z,99.99
2017-05-15T00:19:08.718Z,99.99
2017-05-15T00:20:19.731Z,99.99
2017-05-15T00:21:30.726Z,99.99
2017-05-15T00:22:41.727Z,99.99
2017-05-15T00:23:52.748Z,99.99
2017-05-15T00:25:03.798Z,99.99
2017-05-15T00:26:14.812Z,99.99
2017-05-15T00:27:25.827Z,99.99
2017-05-15T00:28:36.831Z,99.99
2017-05-15T00:29:47.840Z,99.99
2017-05-15T00:30:58.851Z,99.99
2017-05-15T00:32:09.857Z,99.99
2017-05-15T00:33:20.862Z,99.99
2017-05-15T00:34:31.877Z,99.99
2017-05-15T00:35:43.143Z,99.99
2017-05-15T00:36:54.161Z,99.99
2017-05-15T00:38:05.155Z,99.99
2017-05-15T00:39:16.573Z,99.99
2017-05-15T00:40:27.584Z,99.99
2017-05-15T00:41:38.601Z,99.99
2017-05-15T00:42:49.602Z,99.99
2017-05-15T00:44:00.662Z,99.99
2017-05-15T00:45:11.723Z,99.99
2017-05-15T00:46:22.733Z,99.99
2017-05-15T00:47:33.752Z,99.99
2017-05-15T00:48:44.773Z,99.99
2017-05-15T00:49:55.780Z,99.99
2017-05-15T00:51:06.798Z,99.99
2017-05-15T00:52:17.803Z,99.99
2017-05-15T00:53:28.811Z,99.99
2017-05-15T00:54:39.827Z,99.99
2017-05-15T00:55:50.894Z,99.99
2017-05-15T00:57:01.897Z,99.99
2017-05-15T00:58:12.907Z,99.99
2017-05-15T00:59:23.917Z,99.99
2017-05-15T01:00:34.920Z,99.99
2017-05-15T01:01:45.929Z,99.99
2017-05-15T01:02:56.951Z,99.99
2017-05-15T01:04:07.981Z,99.99
2017-05-15T01:05:18.993Z,99.99
2017-05-15T01:06:29.997Z,99.99
2017-05-15T01:07:40.994Z,99.99
2017-05-15T01:08:52.203Z,99.99
2017-05-15T01:10:03.219Z,99.99
2017-05-15T01:11:14.228Z,99.99
2017-05-15T01:12:25.237Z,99.99
2017-05-15T01:13:36.486Z,99.99
2017-05-15T01:14:47.497Z,99.99
2017-05-15T01:15:58.510Z,99.99
2017-05-15T01:17:09.729Z,99.99
2017-05-15T01:18:20.733Z,99.99
2017-05-15T01:19:31.765Z,99.99
2017-05-15T01:20:42.988Z,99.99
2017-05-15T01:21:54.032Z,99.99
2017-05-15T01:23:05.293Z,99.99
2017-05-15T01:24:16.301Z,99.99
2017-05-15T01:25:27.311Z,99.99
2017-05-15T01:26:38.312Z,99.99
2017-05-15T01:27:49.526Z,99.99
2017-05-15T01:29:00.547Z,99.99
2017-05-15T01:30:11.563Z,99.99
2017-05-15T01:31:22.758Z,99.99
2017-05-15T01:32:33.756Z,99.99
2017-05-15T01:33:45.257Z,99.99
2017-05-15T01:34:56.261Z,99.99
2017-05-15T01:36:07.282Z,99.99
2017-05-15T01:37:18.289Z,99.99
2017-05-15T01:38:29.316Z,99.99
2017-05-15T01:39:40.328Z,99.99
2017-05-15T01:40:51.337Z,99.99
2017-05-15T01:42:02.343Z,99.99
2017-05-15T01:43:13.347Z,99.99
2017-05-15T01:44:24.397Z,99.99
2017-05-15T01:45:35.412Z,99.99
2017-05-15T01:46:46.419Z,99.99
2017-05-15T01:47:57.431Z,99.99
2017-05-15T01:49:08.452Z,99.99
2017-05-15T01:50:19.464Z,99.99
2017-05-15T01:51:30.471Z,99.99
2017-05-15T01:52:41.478Z,99.99
2017-05-15T01:53:52.492Z,99.99
2017-05-15T01:55:03.540Z,99.99
2017-05-15T01:56:14.605Z,99.99
2017-05-15T01:57:25.814Z,99.99
2017-05-15T01:58:36.830Z,99.99
2017-05-15T01:59:47.840Z,99.99
2017-05-15T02:00:58.841Z,99.99
2017-05-15T02:02:10.042Z,99.99
2017-05-15T02:03:21.062Z,99.99
2017-05-15T02:04:32.062Z,99.99
2017-05-15T02:05:43.128Z,99.99
2017-05-15T02:06:54.123Z,99.99
2017-05-15T02:08:05.139Z,99.99
2017-05-15T02:09:16.154Z,99.99
2017-05-15T02:10:27.375Z,99.99
2017-05-15T02:11:38.437Z,99.99
2017-05-15T02:12:49.437Z,99.99
2017-05-15T02:14:00.443Z,99.99
2017-05-15T02:15:11.853Z,99.99
2017-05-15T02:16:23.068Z,99.99
2017-05-15T02:17:34.128Z,99.99
2017-05-15T02:18:45.152Z,99.99
2017-05-15T02:19:56.155Z,99.99
2017-05-15T02:21:07.170Z,99.99
2017-05-15T02:22:18.176Z,99.99
2017-05-15T02:23:29.244Z,99.99
2017-05-15T02:24:40.262Z,99.99
2017-05-15T02:25:51.460Z,99.99
2017-05-15T02:27:02.516Z,99.99
2017-05-15T02:28:13.730Z,99.99
2017-05-15T02:29:24.744Z,99.99
2017-05-15T02:30:35.745Z,99.99
2017-05-15T02:31:46.738Z,99.99
2017-05-15T02:32:58.145Z,99.99
2017-05-15T02:34:09.172Z,99.99
2017-05-15T02:35:20.196Z,99.99
2017-05-15T02:36:31.209Z,99.99
2017-05-15T02:37:42.262Z,99.99
2017-05-15T02:38:53.262Z,99.99
2017-05-15T02:40:04.270Z,99.99
2017-05-15T02:41:15.474Z,99.99
2017-05-15T02:42:26.481Z,99.99
2017-05-15T02:43:37.472Z,99.99
2017-05-15T02:44:48.489Z,99.99
2017-05-15T02:45:59.499Z,99.99
2017-05-15T02:47:10.513Z,99.99
2017-05-15T02:48:21.569Z,99.99
2017-05-15T02:49:32.572Z,99.99
2017-05-15T02:50:43.587Z,99.99
2017-05-15T02:51:54.591Z,99.99
2017-05-15T02:53:05.597Z,99.99
2017-05-15T02:54:16.610Z,99.99
2017-05-15T02:55:27.616Z,99.99
2017-05-15T02:56:38.830Z,99.99
2017-05-15T02:57:49.830Z,99.99
2017-05-15T02:59:00.892Z,99.99
2017-05-15T03:00:11.905Z,99.99
2017-05-15T03:01:23.131Z,99.99
2017-05-15T03:02:34.135Z,99.99
2017-05-15T03:03:45.138Z,99.99
2017-05-15T03:04:56.161Z,99.99
2017-05-15T03:06:07.378Z,99.99
2017-05-15T03:07:18.393Z,99.99
2017-05-15T03:08:29.395Z,99.99
2017-05-15T03:09:40.464Z,99.99
2017-05-15T03:10:51.673Z,99.99
2017-05-15T03:12:02.883Z,99.99
2017-05-15T03:13:13.884Z,99.99
2017-05-15T03:14:24.894Z,99.99
2017-05-15T03:15:35.958Z,99.99
2017-05-15T03:16:47.170Z,99.99
2017-05-15T03:17:58.393Z,99.99
2017-05-15T03:19:09.401Z,99.99
2017-05-15T03:20:20.407Z,99.99
2017-05-15T03:21:31.405Z,99.99
2017-05-15T03:22:42.426Z,99.99
2017-05-15T03:23:53.430Z,99.99
2017-05-15T03:25:04.497Z,99.99
2017-05-15T03:26:15.701Z,99.99
2017-05-15T03:27:26.767Z,99.99
2017-05-15T03:28:37.984Z,99.99
2017-05-15T03:29:49.194Z,99.99
2017-05-15T03:31:00.196Z,99.99
2017-05-15T03:32:11.207Z,99.99
2017-05-15T03:33:22.211Z,99.99
2017-05-15T03:34:33.224Z,99.99
2017-05-15T03:35:44.442Z,99.99
2017-05-15T03:36:55.494Z,99.99
2017-05-15T03:38:06.510Z,99.99
2017-05-15T03:39:17.733Z,99.99
2017-05-15T03:40:28.945Z,99.99
2017-05-15T03:41:39.964Z,99.99
2017-05-15T03:42:50.961Z,99.99
2017-05-15T03:44:01.976Z,99.99
2017-05-15T03:45:12.982Z,99.99
2017-05-15T03:46:23.991Z,99.99
2017-05-15T03:47:35.048Z,99.99
2017-05-15T03:48:46.062Z,99.99
2017-05-15T03:49:57.085Z,99.99
2017-05-15T03:51:08.287Z,99.99
2017-05-15T03:52:19.288Z,99.99
2017-05-15T03:53:30.303Z,99.99
2017-05-15T03:54:41.320Z,99.99
2017-05-15T03:55:52.334Z,99.99
2017-05-15T03:57:03.548Z,99.99
2017-05-15T03:58:14.802Z,99.99
2017-05-15T03:59:26.026Z,99.99
2017-05-15T04:00:37.039Z,99.99
2017-05-15T04:01:48.060Z,99.99
2017-05-15T04:02:59.063Z,99.99
2017-05-15T04:04:10.068Z,99.99
2017-05-15T04:05:21.083Z,99.99
2017-05-15T04:06:32.097Z,99.99
2017-05-15T04:07:43.314Z,99.99
2017-05-15T04:08:54.369Z,99.99
2017-05-15T04:10:05.383Z,99.99
2017-05-15T04:11:16.392Z,99.99
2017-05-15T04:12:27.398Z,99.99
2017-05-15T04:13:38.396Z,99.99
2017-05-15T04:14:49.421Z,99.99
2017-05-15T04:16:00.633Z,99.99
2017-05-15T04:17:11.639Z,99.99
2017-05-15T04:18:22.647Z,99.99
2017-05-15T04:19:33.711Z,99.99
2017-05-15T04:20:44.721Z,99.99
2017-05-15T04:21:55.728Z,99.99
2017-05-15T04:23:06.739Z,99.99
2017-05-15T04:24:17.958Z,99.99
2017-05-15T04:25:28.961Z,99.99
2017-05-15T04:26:39.969Z,99.99
2017-05-15T04:27:50.968Z,99.99
2017-05-15T04:29:01.981Z,99.99
2017-05-15T04:30:12.987Z,99.99
2017-05-15T04:31:23.993Z,99.99
2017-05-15T04:32:35.005Z,99.99
2017-05-15T04:33:46.218Z,99.99
2017-05-15T04:34:57.436Z,99.99
2017-05-15T04:36:08.451Z,99.99
2017-05-15T04:37:19.502Z,99.99
2017-05-15T04:38:30.519Z,99.99
2017-05-15T04:39:41.729Z,99.99
2017-05-15T04:40:52.937Z,99.99
2017-05-15T04:42:03.947Z,99.99
2017-05-15T04:43:14.955Z,99.99
2017-05-15T04:44:26.192Z,99.99
2017-05-15T04:45:37.416Z,99.99
2017-05-15T04:46:48.477Z,99.99
2017-05-15T04:47:59.503Z,99.99
2017-05-15T04:49:10.515Z,99.99
2017-05-15T04:50:21.532Z,99.99
2017-05-15T04:51:32.744Z,99.99
2017-05-15T04:52:43.754Z,99.99
2017-05-15T04:53:54.979Z,99.99
2017-05-15T04:55:06.204Z,99.99
2017-05-15T04:56:17.207Z,99.99
2017-05-15T04:57:28.266Z,99.99
2017-05-15T04:58:39.283Z,99.99
2017-05-15T04:59:50.499Z,99.99
2017-05-15T05:01:01.712Z,99.99
2017-05-15T05:02:12.726Z,99.99
2017-05-15T05:03:23.945Z,99.99
2017-05-15T05:04:35.001Z,99.99
2017-05-15T05:05:46.032Z,99.99
2017-05-15T05:06:57.033Z,99.99
2017-05-15T05:08:08.103Z,99.99
2017-05-15T05:09:19.104Z,99.99
2017-05-15T05:10:30.120Z,99.99
2017-05-15T05:11:41.127Z,99.99
2017-05-15T05:12:52.133Z,99.99
2017-05-15T05:14:03.155Z,99.99
2017-05-15T05:15:14.383Z,99.99
2017-05-15T05:16:25.391Z,99.99
2017-05-15T05:17:36.402Z,99.99
2017-05-15T05:18:47.675Z,99.99
2017-05-15T05:19:58.697Z,99.99
2017-05-15T05:21:09.714Z,99.99
2017-05-15T05:22:20.921Z,99.99
2017-05-15T05:23:32.129Z,99.99
2017-05-15T05:24:43.347Z,99.99
2017-05-15T05:25:54.377Z,99.99
2017-05-15T05:27:05.394Z,99.99
2017-05-15T05:28:16.411Z,99.99
2017-05-15T05:29:27.430Z,99.99
2017-05-15T05:30:38.642Z,99.99
2017-05-15T05:31:49.649Z,99.99
2017-05-15T05:33:00.664Z,99.99
2017-05-15T05:34:11.683Z,99.99
2017-05-15T05:35:22.704Z,99.99
2017-05-15T05:36:33.714Z,99.99
2017-05-15T05:37:44.921Z,99.99
2017-05-15T05:38:55.935Z,99.99
2017-05-15T05:40:07.009Z,99.99
2017-05-15T05:41:18.221Z,99.99
2017-05-15T05:42:29.231Z,99.99
2017-05-15T05:43:40.448Z,99.99
2017-05-15T05:44:51.466Z,99.99
2017-05-15T05:46:02.472Z,99.99
2017-05-15T05:47:13.482Z,99.99
2017-05-15T05:48:24.710Z,99.99
2017-05-15T05:49:35.933Z,99.99
2017-05-15T05:50:46.996Z,99.99
2017-05-15T05:51:58.006Z,99.99
2017-05-15T05:53:09.005Z,99.99
2017-05-15T05:54:20.013Z,99.99
2017-05-15T05:55:31.231Z,99.99
2017-05-15T05:56:42.247Z,99.99
2017-05-15T05:57:53.250Z,99.99
2017-05-15T05:59:04.267Z,99.99
2017-05-15T06:00:15.488Z,99.99
2017-05-15T06:01:26.567Z,99.99
2017-05-15T06:02:37.577Z,99.99
2017-05-15T06:03:48.633Z,99.99
2017-05-15T06:04:59.850Z,99.99
2017-05-15T06:06:11.126Z,99.99
2017-05-15T06:07:22.138Z,99.99
2017-05-15T06:08:33.553Z,99.99
2017-05-15T06:09:44.573Z,99.99
2017-05-15T06:10:55.584Z,99.99
2017-05-15T06:12:06.858Z,99.99
2017-05-15T06:13:18.092Z,99.99
2017-05-15T06:14:29.314Z,97.14
2017-05-15T06:15:40.330Z,97.33
2017-05-15T06:16:51.359Z,95.26
2017-05-15T06:18:02.377Z,94.98
2017-05-15T06:19:13.399Z,94.93
2017-05-15T06:20:24.646Z,93.58
2017-05-15T06:21:35.670Z,90.36
2017-05-15T06:22:46.751Z,89.88
2017-05-15T06:23:57.774Z,92.86
2017-05-15T06:25:08.821Z,89.83
2017-05-15T06:26:19.851Z,88.1
2017-05-15T06:27:30.870Z,86.94
2017-05-15T06:28:42.105Z,87.71
2017-05-15T06:29:53.124Z,87.18
2017-05-15T06:31:04.548Z,90.35
2017-05-15T06:32:15.568Z,88.04
2017-05-15T06:33:26.581Z,89.92
2017-05-15T06:34:37.608Z,86.55
2017-05-15T06:35:48.618Z,91.55
2017-05-15T06:36:59.638Z,88.32
2017-05-15T06:38:10.873Z,88.65
2017-05-15T06:39:21.879Z,86.44
2017-05-15T06:40:32.965Z,87.02
2017-05-15T06:41:44.191Z,85.77
2017-05-15T06:42:55.221Z,83.84
2017-05-15T06:44:06.655Z,86.35
2017-05-15T06:45:17.698Z,82.14
2017-05-15T06:46:28.747Z,80.51
2017-05-15T06:47:39.780Z,80.12
2017-05-15T06:48:50.800Z,83.11
2017-05-15T06:50:01.873Z,82.38
2017-05-15T06:51:12.893Z,87.2
2017-05-15T06:52:23.911Z,87.44
2017-05-15T06:53:34.926Z,76.82
2017-05-15T06:54:46.158Z,76.34
2017-05-15T06:55:57.390Z,76.15
2017-05-15T06:57:08.422Z,79.62
2017-05-15T06:58:19.489Z,79.24
2017-05-15T06:59:30.529Z,77.78
2017-05-15T07:00:41.599Z,77.3
2017-05-15T07:01:52.626Z,78.08
2017-05-15T07:03:03.649Z,78.59
2017-05-15T07:04:14.868Z,75.41
2017-05-15T07:05:25.897Z,80.82
2017-05-15T07:06:36.934Z,76.76
2017-05-15T07:07:48.165Z,77.25
2017-05-15T07:08:59.191Z,77.25
2017-05-15T07:10:10.228Z,74.19
2017-05-15T07:11:21.298Z,76.22
2017-05-15T07:12:32.324Z,77.05
2017-05-15T07:13:43.367Z,75.84
2017-05-15T07:14:54.395Z,73.9
2017-05-15T07:16:05.412Z,74
2017-05-15T07:17:16.427Z,75.06
2017-05-15T07:18:27.459Z,74.83
2017-05-15T07:19:38.497Z,74.19
2017-05-15T07:20:49.519Z,72.74
2017-05-15T07:22:00.596Z,74.73
2017-05-15T07:23:11.629Z,74.16
2017-05-15T07:24:22.639Z,74.73
2017-05-15T07:25:33.673Z,75.89
2017-05-15T07:26:44.918Z,76.37
2017-05-15T07:27:55.941Z,76.09
2017-05-15T07:29:06.956Z,78.89
2017-05-15T07:30:17.983Z,76.67
2017-05-15T07:31:29.010Z,79.85
2017-05-15T07:32:40.090Z,78.15
2017-05-15T07:33:51.327Z,76.16
2017-05-15T07:35:02.354Z,77.61
2017-05-15T07:36:13.387Z,78.42
2017-05-15T07:37:24.425Z,75.91
2017-05-15T07:38:35.661Z,73.43
2017-05-15T07:39:46.895Z,73.91
2017-05-15T07:40:57.920Z,70.88
2017-05-15T07:42:08.945Z,72.62
2017-05-15T07:43:19.976Z,71.72
2017-05-15T07:44:31.062Z,73.1
2017-05-15T07:45:42.085Z,71.42
2017-05-15T07:46:53.132Z,74.68
2017-05-15T07:48:04.167Z,74.96
2017-05-15T07:49:15.189Z,76.64
2017-05-15T07:50:26.219Z,76.97
2017-05-15T07:51:37.240Z,70.78
2017-05-15T07:52:48.470Z,71.66
2017-05-15T07:53:59.503Z,73.39
2017-05-15T07:55:10.583Z,72.81
2017-05-15T07:56:21.610Z,70.98
2017-05-15T07:57:32.633Z,74.17
2017-05-15T07:58:43.710Z,75.71
2017-05-15T07:59:55.146Z,72.91
2017-05-15T08:01:06.165Z,71.56
2017-05-15T08:02:17.203Z,76.68
2017-05-15T08:03:28.241Z,76.24
2017-05-15T08:04:39.320Z,75.27
2017-05-15T08:05:50.345Z,69.56
2017-05-15T08:07:01.381Z,67.82
2017-05-15T08:08:12.413Z,68.27
2017-05-15T08:09:23.645Z,70.4
2017-05-15T08:10:34.675Z,70.88
2017-05-15T08:11:45.712Z,71.3
2017-05-15T08:12:56.740Z,70.53
2017-05-15T08:14:07.816Z,72.85
2017-05-15T08:15:19.098Z,71.34
2017-05-15T08:16:30.176Z,69.59
2017-05-15T08:17:41.195Z,70.08
2017-05-15T08:18:52.234Z,73.08
2017-05-15T08:20:03.477Z,72.92
2017-05-15T08:21:14.492Z,74.38
2017-05-15T08:22:25.521Z,75.54
2017-05-15T08:23:36.762Z,71.8
2017-05-15T08:24:48.000Z,73.15
2017-05-15T08:25:59.086Z,71.7
2017-05-15T08:27:10.115Z,70.54
2017-05-15T08:28:21.142Z,66.47
2017-05-15T08:29:32.177Z,65.66
2017-05-15T08:30:43.215Z,64.69
2017-05-15T08:31:54.348Z,71.72
2017-05-15T08:33:05.571Z,71.95
2017-05-15T08:34:16.605Z,69.82
2017-05-15T08:35:27.642Z,73.15
2017-05-15T08:36:38.686Z,73.35
2017-05-15T08:37:49.711Z,73.38
2017-05-15T08:39:00.737Z,67.47
2017-05-15T08:40:11.774Z,67.37
2017-05-15T08:41:22.795Z,66.47
2017-05-15T08:42:33.822Z,62.49
2017-05-15T08:43:45.052Z,65.14
2017-05-15T08:44:56.093Z,64.75
2017-05-15T08:46:07.108Z,69.21
2017-05-15T08:47:18.131Z,68.47
2017-05-15T08:48:29.159Z,71.95
2017-05-15T08:49:40.237Z,71.76
2017-05-15T08:50:51.256Z,71.86
2017-05-15T08:52:02.281Z,72.96
2017-05-15T08:53:13.330Z,68.15
2017-05-15T08:54:24.366Z,64.17
2017-05-15T08:55:35.416Z,64.56
2017-05-15T08:56:46.449Z,64.59
2017-05-15T08:57:57.490Z,71.02
2017-05-15T08:59:08.573Z,72.96
2017-05-15T09:00:19.606Z,71.6
2017-05-15T09:01:30.634Z,71.25
2017-05-15T09:02:41.671Z,66.11
2017-05-15T09:03:52.702Z,68.63
2017-05-15T09:05:03.732Z,67.18
2017-05-15T09:06:14.749Z,66.63
2017-05-15T09:07:25.775Z,68.08
2017-05-15T09:08:36.799Z,62.26
2017-05-15T09:09:47.882Z,61.98
2017-05-15T09:10:58.921Z,60.1
2017-05-15T09:12:09.946Z,66.2
2017-05-15T09:13:21.016Z,65.34
2017-05-15T09:14:32.058Z,68.15
2017-05-15T09:15:43.287Z,66.99
2017-05-15T09:16:54.308Z,68.63
2017-05-15T09:18:05.338Z,68.82
2017-05-15T09:19:16.368Z,67.21
2017-05-15T09:20:27.598Z,63.82
2017-05-15T09:21:38.634Z,67.5
2017-05-15T09:22:49.669Z,72.09
2017-05-15T09:24:00.707Z,65.79
2017-05-15T09:25:11.986Z,71.36
2017-05-15T09:26:23.033Z,68.44
2017-05-15T09:27:34.075Z,66.53
2017-05-15T09:28:45.304Z,67.8
2017-05-15T09:29:56.523Z,67.73
2017-05-15T09:31:07.560Z,64.23
2017-05-15T09:32:18.587Z,66.27
2017-05-15T09:33:29.825Z,62.58
2017-05-15T09:34:40.846Z,67.08
2017-05-15T09:35:51.932Z,62.58
2017-05-15T09:37:02.962Z,62
2017-05-15T09:38:14.044Z,63.84
2017-05-15T09:39:25.070Z,66.27
2017-05-15T09:40:36.316Z,63.23
2017-05-15T09:41:47.601Z,61.12
2017-05-15T09:42:58.635Z,63.04
2017-05-15T09:44:09.873Z,63.52
2017-05-15T09:45:20.897Z,60.31
2017-05-15T09:46:32.331Z,65.82
2017-05-15T09:47:43.563Z,62.13
2017-05-15T09:48:54.597Z,64.85
2017-05-15T09:50:05.630Z,61.16
2017-05-15T09:51:16.661Z,65.53
2017-05-15T09:52:27.685Z,62.45
2017-05-15T09:53:38.756Z,62.35
2017-05-15T09:54:49.803Z,64.23
2017-05-15T09:56:00.827Z,53.38
2017-05-15T09:57:12.066Z,56.75
2017-05-15T09:58:23.087Z,51.09
2017-05-15T09:59:34.125Z,50.6
2017-05-15T10:00:45.153Z,50.6
2017-05-15T10:01:56.180Z,52.25
2017-05-15T10:03:07.500Z,59.51
2017-05-15T10:04:18.535Z,55.53
2017-05-15T10:05:29.563Z,58.28
2017-05-15T10:06:40.801Z,55.65
2017-05-15T10:07:52.021Z,57.11
2017-05-15T10:09:03.108Z,59.57
2017-05-15T10:10:14.124Z,61.25
2017-05-15T10:11:25.353Z,55.8
2017-05-15T10:12:36.576Z,53.38
2017-05-15T10:13:47.658Z,48.71
2017-05-15T10:14:58.701Z,51.04
2017-05-15T10:16:09.732Z,51.62
2017-05-15T10:17:20.971Z,50.36
2017-05-15T10:18:32.190Z,50.56
2017-05-15T10:19:43.224Z,52.31
2017-05-15T10:20:54.256Z,56
2017-05-15T10:22:05.286Z,50.75
2017-05-15T10:23:16.358Z,47.54
2017-05-15T10:24:27.841Z,51.01
2017-05-15T10:25:38.862Z,57.33
2017-05-15T10:26:49.889Z,57.17
2017-05-15T10:28:01.130Z,53.86
2017-05-15T10:29:12.164Z,53.69
2017-05-15T10:30:23.192Z,49.22
2017-05-15T10:31:34.226Z,51.14
2017-05-15T10:32:45.256Z,51.72
2017-05-15T10:33:56.289Z,48.58
2017-05-15T10:35:07.376Z,54.03
2017-05-15T10:36:18.405Z,52.06
2017-05-15T10:37:29.429Z,49.34
2017-05-15T10:38:40.680Z,50.07
2017-05-15T10:39:51.699Z,51.04
2017-05-15T10:41:02.785Z,52.88
2017-05-15T10:42:13.805Z,48.15
2017-05-15T10:43:25.042Z,51.23
2017-05-15T10:44:36.074Z,51.23
2017-05-15T10:45:47.305Z,59.48
2017-05-15T10:46:58.329Z,57.47
2017-05-15T10:48:09.363Z,52.25
2017-05-15T10:49:20.446Z,50.31
2017-05-15T10:50:31.480Z,48.08
2017-05-15T10:51:42.722Z,53.03
2017-05-15T10:52:53.946Z,49.05
2017-05-15T10:54:04.970Z,50.36
2017-05-15T10:55:16.006Z,55.02
2017-05-15T10:56:27.039Z,60.42
2017-05-15T10:57:38.055Z,56.76
2017-05-15T10:58:49.133Z,54.63
2017-05-15T11:00:00.167Z,59.58
2017-05-15T11:01:11.178Z,56.79
2017-05-15T11:02:22.403Z,53.32
2017-05-15T11:03:33.431Z,57.21
2017-05-15T11:04:44.462Z,53.06
2017-05-15T11:05:55.695Z,50.85
2017-05-15T11:07:06.719Z,53.08
2017-05-15T11:08:17.808Z,53.47
2017-05-15T11:09:28.825Z,57.17
2017-05-15T11:10:39.847Z,60.77
2017-05-15T11:11:50.866Z,62.93
2017-05-15T11:13:01.898Z,56.12
2017-05-15T11:14:13.337Z,55.25
2017-05-15T11:15:24.366Z,56.81
2017-05-15T11:16:35.403Z,54.96
2017-05-15T11:17:46.442Z,48.66
2017-05-15T11:18:57.524Z,51.87
2017-05-15T11:20:08.549Z,55.47
2017-05-15T11:21:19.572Z,55.27
2017-05-15T11:22:30.789Z,57.45
2017-05-15T11:23:42.013Z,57.25
2017-05-15T11:24:53.040Z,56.96
2017-05-15T11:26:04.109Z,55.3
2017-05-15T11:27:15.134Z,54.36
2017-05-15T11:28:26.165Z,53.16
2017-05-15T11:29:37.242Z,55.3
2017-05-15T11:30:48.257Z,51.14
2017-05-15T11:31:59.276Z,52.89
2017-05-15T11:33:10.307Z,54.43
2017-05-15T11:34:21.333Z,53.45
2017-05-15T11:35:32.354Z,51.99
2017-05-15T11:36:43.369Z,53.72
2017-05-15T11:37:54.399Z,53.33
2017-05-15T11:39:05.426Z,53.52
2017-05-15T11:40:16.443Z,53.42
2017-05-15T11:41:27.476Z,55.27
2017-05-15T11:42:38.501Z,53.33
2017-05-15T11:43:49.538Z,53.33
2017-05-15T11:45:00.570Z,52.36
2017-05-15T11:46:11.648Z,51.29
2017-05-15T11:47:23.093Z,44.76
2017-05-15T11:48:34.115Z,52.45
2017-05-15T11:49:45.153Z,50.38
2017-05-15T11:50:56.373Z,50.41
2017-05-15T11:52:07.394Z,52.26
2017-05-15T11:53:18.626Z,53.4
2017-05-15T11:54:29.891Z,55.83
2017-05-15T11:55:41.323Z,55.25
2017-05-15T11:56:52.552Z,51.84
2017-05-15T11:58:03.582Z,50.75
2017-05-15T11:59:14.604Z,54.74
2017-05-15T12:00:25.622Z,56.71
2017-05-15T12:01:36.697Z,55.35
2017-05-15T12:02:47.725Z,52.84
2017-05-15T12:03:58.945Z,54.79
2017-05-15T12:05:09.980Z,50.8
2017-05-15T12:06:21.053Z,51.31
2017-05-15T12:07:32.072Z,52.87
2017-05-15T12:08:43.072Z,55.5
2017-05-15T12:09:54.297Z,55.13
2017-05-15T12:11:05.360Z,51.43
2017-05-15T12:12:16.419Z,46.56
2017-05-15T12:13:27.448Z,54.23
2017-05-15T12:14:38.481Z,55.11
2017-05-15T12:15:49.698Z,55.11
2017-05-15T12:17:00.718Z,52.28
2017-05-15T12:18:11.794Z,46.54
2017-05-15T12:19:22.824Z,57.25
2017-05-15T12:20:33.847Z,54.03
2017-05-15T12:21:44.861Z,53.94
2017-05-15T12:22:55.898Z,53.16
2017-05-15T12:24:07.168Z,53.55
2017-05-15T12:25:18.187Z,52.7
2017-05-15T12:26:29.208Z,52.58
2017-05-15T12:27:40.424Z,52.67
2017-05-15T12:28:51.434Z,51.87
2017-05-15T12:30:02.711Z,53.3
2017-05-15T12:31:13.937Z,53.11
2017-05-15T12:32:24.972Z,52.53
2017-05-15T12:33:35.993Z,53.01
2017-05-15T12:34:47.215Z,50.78
2017-05-15T12:35:58.502Z,50.48
2017-05-15T12:37:09.726Z,53.67
2017-05-15T12:38:20.747Z,54.64
2017-05-15T12:39:31.765Z,56.29
2017-05-15T12:40:42.783Z,54.93
2017-05-15T12:41:54.064Z,54.25
2017-05-15T12:43:05.082Z,54.15
2017-05-15T12:44:16.305Z,56.1
2017-05-15T12:45:27.521Z,54.83
2017-05-15T12:46:38.554Z,57.07
2017-05-15T12:47:49.635Z,52.01
2017-05-15T12:49:00.655Z,55.51
2017-05-15T12:50:11.676Z,54.05
2017-05-15T12:51:22.709Z,58.07
2017-05-15T12:52:33.736Z,48.34
2017-05-15T12:53:45.219Z,54.83
2017-05-15T12:54:56.245Z,55.61
2017-05-15T12:56:07.271Z,51.55
2017-05-15T12:57:18.297Z,51.82
2017-05-15T12:58:29.523Z,54.05
2017-05-15T12:59:40.592Z,56.2
2017-05-15T13:00:51.601Z,56.1
2017-05-15T13:02:02.639Z,53.86
2017-05-15T13:03:13.672Z,51.72
2017-05-15T13:04:24.701Z,49.46
2017-05-15T13:05:35.766Z,55.98
2017-05-15T13:06:46.790Z,55.17
2017-05-15T13:07:57.812Z,57.89
2017-05-15T13:09:08.828Z,54.68
2017-05-15T13:10:19.848Z,52.84
2017-05-15T13:11:30.922Z,48.66
2017-05-15T13:12:42.367Z,53.56
2017-05-15T13:13:53.791Z,57.8
2017-05-15T13:15:04.815Z,56.9
2017-05-15T13:16:15.831Z,55.93
2017-05-15T13:17:26.890Z,58.42
2017-05-15T13:18:37.923Z,54.84
2017-05-15T13:19:48.942Z,50.35
2017-05-15T13:20:59.954Z,52.68
2017-05-15T13:22:10.975Z,52.78
2017-05-15T13:23:22.045Z,52.29
2017-05-15T13:24:33.060Z,50.96
2017-05-15T13:25:44.071Z,51.74
2017-05-15T13:26:55.095Z,56.1
2017-05-15T13:28:06.123Z,60.17
2017-05-15T13:29:17.393Z,55.83
2017-05-15T13:30:28.397Z,53.51
2017-05-15T13:31:39.420Z,56.13
2017-05-15T13:32:50.455Z,53.41
2017-05-15T13:34:01.474Z,53.58
2017-05-15T13:35:12.745Z,53.09
2017-05-15T13:36:23.767Z,53.65
2017-05-15T13:37:34.986Z,62.27
2017-05-15T13:38:46.008Z,63.34
2017-05-15T13:39:57.031Z,60.04
2017-05-15T13:41:08.111Z,55.78
2017-05-15T13:42:19.126Z,59.46
2017-05-15T13:43:30.137Z,62.75
2017-05-15T13:44:41.150Z,63.24
2017-05-15T13:45:52.164Z,64.53
2017-05-15T13:47:03.233Z,66.37
2017-05-15T13:48:14.260Z,62.69
2017-05-15T13:49:25.286Z,55.81
2017-05-15T13:50:36.503Z,51.84
2017-05-15T13:51:47.516Z,54.94
2017-05-15T13:52:58.796Z,53.09
2017-05-15T13:54:09.827Z,52.93
2017-05-15T13:55:20.846Z,57.48
2017-05-15T13:56:31.924Z,64.27
2017-05-15T13:57:42.942Z,60.42
2017-05-15T13:58:54.004Z,62.07
2017-05-15T14:00:05.238Z,55.02
2017-05-15T14:01:16.259Z,59.38
2017-05-15T14:02:27.489Z,59.58
2017-05-15T14:03:38.507Z,62.49
2017-05-15T14:04:49.583Z,55.11
2017-05-15T14:06:00.624Z,55.89
2017-05-15T14:07:11.634Z,60.16
2017-05-15T14:08:23.073Z,59.03
2017-05-15T14:09:34.080Z,59.03
2017-05-15T14:10:45.101Z,61.25
2017-05-15T14:11:56.130Z,59.41
2017-05-15T14:13:07.370Z,57.08
2017-05-15T14:14:18.391Z,51.16
2017-05-15T14:15:29.452Z,48.52
2017-05-15T14:16:40.467Z,51.14
2017-05-15T14:17:51.493Z,57.15
2017-05-15T14:19:02.721Z,56.67
2017-05-15T14:20:13.741Z,56.67
2017-05-15T14:21:25.028Z,60.03
2017-05-15T14:22:36.048Z,63.13
2017-05-15T14:23:47.068Z,61.88
2017-05-15T14:24:58.092Z,61.75
2017-05-15T14:26:09.109Z,61.58
2017-05-15T14:27:20.186Z,60.23
2017-05-15T14:28:31.209Z,61.1
2017-05-15T14:29:42.230Z,61.19
2017-05-15T14:30:53.243Z,61.71
2017-05-15T14:32:04.258Z,61.16
2017-05-15T14:33:15.325Z,52.13
2017-05-15T14:34:26.358Z,50.38
2017-05-15T14:35:37.368Z,47.47
2017-05-15T14:36:48.395Z,50.65
2017-05-15T14:37:59.404Z,52.88
2017-05-15T14:39:10.479Z,53.27
2017-05-15T14:40:21.495Z,53.44
2017-05-15T14:41:32.516Z,49.85
2017-05-15T14:42:43.525Z,47.98
2017-05-15T14:43:54.537Z,51.84
2017-05-15T14:45:05.596Z,52.2
2017-05-15T14:46:16.614Z,58.81
2017-05-15T14:47:27.624Z,54.64
2017-05-15T14:48:38.642Z,56.68
2017-05-15T14:49:49.654Z,53.17
2017-05-15T14:51:00.683Z,55.88
2017-05-15T14:52:11.706Z,60.33
2017-05-15T14:53:22.974Z,58.98
2017-05-15T14:54:33.993Z,56.29
2017-05-15T14:55:45.060Z,50.96
2017-05-15T14:56:56.064Z,59.49
2017-05-15T14:58:07.072Z,58.23
2017-05-15T14:59:18.099Z,58.14
2017-05-15T15:00:29.315Z,58.81
2017-05-15T15:01:40.596Z,56.1
2017-05-15T15:02:51.626Z,54.45
2017-05-15T15:04:02.650Z,57.26
2017-05-15T15:05:13.862Z,56.49
2017-05-15T15:06:24.887Z,54.55
2017-05-15T15:07:35.953Z,56.94
2017-05-15T15:08:47.005Z,60.55
2017-05-15T15:09:58.072Z,58.91
2017-05-15T15:11:09.087Z,55.13
2017-05-15T15:12:20.096Z,59.59
2017-05-15T15:13:31.114Z,58.72
2017-05-15T15:14:42.134Z,58.04
2017-05-15T15:15:53.527Z,54.64
2017-05-15T15:17:04.772Z,53.67